Data at: 1018 UTC 25 Apr 2018

METAR for:KAFF (Air Force Academy Ai, CO, US)
Text:KAFF 250958Z AUTO 00000KT 10SM CLR M03/M04 A3036 RMK AO2 SLP312 T10351039
Temperature: -3.5°C ( 26°F)
Dewpoint: -3.9°C ( 25°F) [RH = 97%]
Pressure (altimeter):30.36 inches Hg (1028.2 mb) [Sea level pressure: 1031.2 mb]
Winds:calm
Visibility:10 or more sm (16+ km)
Ceiling:at least 12,000 feet AGL
Clouds:sky clear below 12,000 feet AGL
QC Flag:automated observation with no human augmentation
Text:KAFF 250858Z AUTO 02006KT 10SM CLR M04/M04 A3035 RMK AO2 SLP315 T10371041 57017
Temperature: -3.7°C ( 25°F)
Dewpoint: -4.1°C ( 25°F) [RH = 97%]
Pressure (altimeter):30.35 inches Hg (1027.9 mb) [Sea level pressure: 1031.5 mb]
Winds:from the NNE (20 degrees) at 7 MPH (6 knots; 3.1 m/s)
Visibility:10 or more sm (16+ km)
Ceiling:at least 12,000 feet AGL
Clouds:sky clear below 12,000 feet AGL
QC Flag:automated observation with no human augmentation
Text:KAFF 250758Z AUTO 33005KT 10SM CLR M04/M04 A3038 RMK AO2 SLP325 T10381044
Temperature: -3.8°C ( 25°F)
Dewpoint: -4.4°C ( 24°F) [RH = 96%]
Pressure (altimeter):30.38 inches Hg (1028.9 mb) [Sea level pressure: 1032.5 mb]
Winds:from the NNW (330 degrees) at 6 MPH (5 knots; 2.6 m/s)
Visibility:10 or more sm (16+ km)
Ceiling:at least 12,000 feet AGL
Clouds:sky clear below 12,000 feet AGL
QC Flag:automated observation with no human augmentation
Text:KAFF 250658Z AUTO 32003KT 10SM CLR M02/M02 A3040 RMK AO2 SLPNO T10181025 400541023
Temperature: -1.8°C ( 29°F)
Dewpoint: -2.5°C ( 28°F) [RH = 95%]
Pressure (altimeter):30.40 inches Hg (1029.5 mb)
Winds:from the NW (320 degrees) at 3 MPH (3 knots; 1.5 m/s)
Visibility:10 or more sm (16+ km)
Ceiling:at least 12,000 feet AGL
Clouds:sky clear below 12,000 feet AGL
QC Flag:automated observation with no human augmentation
Text:KAFF 250558Z AUTO 01008KT 10SM FEW015 M01/M02 A3041 RMK AO2 SNB24E36 SLP324 P0000 60000 T10061017 10011 21008 50002
Temperature: -0.6°C ( 31°F)
Dewpoint: -1.7°C ( 29°F) [RH = 92%]
Pressure (altimeter):30.41 inches Hg (1029.9 mb) [Sea level pressure: 1032.4 mb]
Winds:from the N (10 degrees) at 9 MPH (8 knots; 4.1 m/s)
Visibility:10 or more sm (16+ km)
Ceiling:at least 12,000 feet AGL
Clouds: few clouds at 1500 feet AGL
QC Flag:automated observation with no human augmentation
Text:KAFF 250536Z AUTO 36007KT 10SM BKN017 M01/M02 A3041 RMK AO2 SNB24E36 CIG 017V021 BKN V OVC SLP324
Temperature: -1.0°C ( 30°F)
Dewpoint: -2.0°C ( 28°F) [RH = 93%]
Pressure (altimeter):30.41 inches Hg (1029.9 mb) [Sea level pressure: 1032.4 mb]
Winds:from the N (360 degrees) at 8 MPH (7 knots; 3.6 m/s)
Visibility:10 or more sm (16+ km)
Ceiling:1700 feet AGL
Clouds: broken clouds at 1700 feet AGL
QC Flag:automated observation with no human augmentation
Text:KAFF 250534Z AUTO 36006KT 10SM -SN BKN017 00/M01 A3041 RMK AO2 SNB24 CIG 017V021 BKN V OVC SLP318
Temperature: 0.0°C ( 32°F)
Dewpoint: -1.0°C ( 30°F) [RH = 93%]
Pressure (altimeter):30.41 inches Hg (1029.9 mb) [Sea level pressure: 1031.8 mb]
Winds:from the N (360 degrees) at 7 MPH (6 knots; 3.1 m/s)
Visibility:10 or more sm (16+ km)
Ceiling:1700 feet AGL
Clouds: broken clouds at 1700 feet AGL
Weather:-SN (light snow)
QC Flag:automated observation with no human augmentation
Text:KAFF 250524Z AUTO 36007KT 10SM -SN SCT015 OVC021 00/M01 A3041 RMK AO2 SNB24 CIG 015V021 SLP324
Temperature: 0.0°C ( 32°F)
Dewpoint: -1.0°C ( 30°F) [RH = 93%]
Pressure (altimeter):30.41 inches Hg (1029.9 mb) [Sea level pressure: 1032.4 mb]
Winds:from the N (360 degrees) at 8 MPH (7 knots; 3.6 m/s)
Visibility:10 or more sm (16+ km)
Ceiling:2100 feet AGL
Clouds: scattered clouds at 1500 feet AGL, overcast cloud deck at 2100 feet AGL
Weather:-SN (light snow)
QC Flag:automated observation with no human augmentation
Text:KAFF 250458Z AUTO 35007KT 10SM OVC016 00/M01 A3041 RMK AO2 SNB01E40 SLP324 P0000 T10021008
Temperature: -0.2°C ( 32°F)
Dewpoint: -0.8°C ( 31°F) [RH = 96%]
Pressure (altimeter):30.41 inches Hg (1029.9 mb) [Sea level pressure: 1032.4 mb]
Winds:from the N (350 degrees) at 8 MPH (7 knots; 3.6 m/s)
Visibility:10 or more sm (16+ km)
Ceiling:1600 feet AGL
Clouds: overcast cloud deck at 1600 feet AGL
QC Flag:automated observation with no human augmentation
Text:KAFF 250401Z AUTO 35005KT 10SM -SN BKN020 OVC043 00/M01 A3043 RMK AO2 SNB01 CIG 020V044 BKN V SCT SLP331
Temperature: 0.0°C ( 32°F)
Dewpoint: -1.0°C ( 30°F) [RH = 93%]
Pressure (altimeter):30.43 inches Hg (1030.6 mb) [Sea level pressure: 1033.1 mb]
Winds:from the N (350 degrees) at 6 MPH (5 knots; 2.6 m/s)
Visibility:10 or more sm (16+ km)
Ceiling:2000 feet AGL
Clouds: broken clouds at 2000 feet AGL, overcast cloud deck at 4300 feet AGL
Weather:-SN (light snow)
QC Flag:automated observation with no human augmentation
Text:KAFF 250358Z AUTO 36004KT 10SM BKN020 OVC043 00/M01 A3043 RMK AO2 SNE47 CIG 020V044 BKN V SCT SLP331 P0000 T10041007
Temperature: -0.4°C ( 31°F)
Dewpoint: -0.7°C ( 31°F) [RH = 98%]
Pressure (altimeter):30.43 inches Hg (1030.6 mb) [Sea level pressure: 1033.1 mb]
Winds:from the N (360 degrees) at 5 MPH (4 knots; 2.1 m/s)
Visibility:10 or more sm (16+ km)
Ceiling:2000 feet AGL
Clouds: broken clouds at 2000 feet AGL, overcast cloud deck at 4300 feet AGL
QC Flag:automated observation with no human augmentation
Text:KAFF 250357Z AUTO 36004KT 10SM BKN020 OVC043 00/M01 A3043 RMK AO2 SNE47 CIG 020V044 BKN V FEW SLP331
Temperature: 0.0°C ( 32°F)
Dewpoint: -1.0°C ( 30°F) [RH = 93%]
Pressure (altimeter):30.43 inches Hg (1030.6 mb) [Sea level pressure: 1033.1 mb]
Winds:from the N (360 degrees) at 5 MPH (4 knots; 2.1 m/s)
Visibility:10 or more sm (16+ km)
Ceiling:2000 feet AGL
Clouds: broken clouds at 2000 feet AGL, overcast cloud deck at 4300 feet AGL
QC Flag:automated observation with no human augmentation
Text:KAFF 250248Z AUTO 33005KT 3SM -SN BR OVC029 00/00 A3040 RMK AO2 SLP320
Temperature: 0.0°C ( 32°F)
Dewpoint: 0.0°C ( 32°F) [RH = 100%]
Pressure (altimeter):30.40 inches Hg (1029.5 mb) [Sea level pressure: 1032.0 mb]
Winds:from the NNW (330 degrees) at 6 MPH (5 knots; 2.6 m/s)
Visibility: 3 sm ( 5 km)
Ceiling:2900 feet AGL
Clouds: overcast cloud deck at 2900 feet AGL
Weather:-SN BR (light snow, mist)
QC Flag:automated observation with no human augmentation
Text:KAFF 250238Z AUTO 33006KT 2 3/4SM -SN BR OVC023 00/00 A3040 RMK AO2 VIS 2 3/4V4 SLP320
Temperature: 0.0°C ( 32°F)
Dewpoint: 0.0°C ( 32°F) [RH = 100%]
Pressure (altimeter):30.40 inches Hg (1029.5 mb) [Sea level pressure: 1032.0 mb]
Winds:from the NNW (330 degrees) at 7 MPH (6 knots; 3.1 m/s)
Visibility: 2.75 sm ( 4.43 km)
Ceiling:2300 feet AGL
Clouds: overcast cloud deck at 2300 feet AGL
Weather:-SN BR (light snow, mist)
QC Flag:automated observation with no human augmentation
Text:KAFF 250228Z AUTO 33005KT 4SM -SN BR FEW002 00/M01 A3040 RMK AO2 SLP320
Temperature: 0.0°C ( 32°F)
Dewpoint: -1.0°C ( 30°F) [RH = 93%]
Pressure (altimeter):30.40 inches Hg (1029.5 mb) [Sea level pressure: 1032.0 mb]
Winds:from the NNW (330 degrees) at 6 MPH (5 knots; 2.6 m/s)
Visibility: 4 sm ( 6 km)
Ceiling:at least 12,000 feet AGL
Clouds: few clouds at 200 feet AGL
Weather:-SN BR (light snow, mist)
QC Flag:automated observation with no human augmentation
Text:KAFF 250218Z AUTO 33006KT 2 1/4SM -SN BR FEW002 00/M01 A3039 RMK AO2 VIS 1 1/4V2 1/4 SLP317
Temperature: 0.0°C ( 32°F)
Dewpoint: -1.0°C ( 30°F) [RH = 93%]
Pressure (altimeter):30.39 inches Hg (1029.2 mb) [Sea level pressure: 1031.7 mb]
Winds:from the NNW (330 degrees) at 7 MPH (6 knots; 3.1 m/s)
Visibility: 2.25 sm ( 3.62 km)
Ceiling:at least 12,000 feet AGL
Clouds: few clouds at 200 feet AGL
Weather:-SN BR (light snow, mist)
QC Flag:automated observation with no human augmentation
Text:KAFF 250158Z AUTO 33010KT 1 1/4SM -SN BR FEW002 00/M01 A3039 RMK AO2 SLP317 P0000 T10021011
Temperature: -0.2°C ( 32°F)
Dewpoint: -1.1°C ( 30°F) [RH = 94%]
Pressure (altimeter):30.39 inches Hg (1029.2 mb) [Sea level pressure: 1031.7 mb]
Winds:from the NNW (330 degrees) at 12 MPH (10 knots; 5.1 m/s)
Visibility: 1.25 sm ( 2.01 km)
Ceiling:at least 12,000 feet AGL
Clouds: few clouds at 200 feet AGL
Weather:-SN BR (light snow, mist)
QC Flag:automated observation with no human augmentation
Text:KAFF 250148Z AUTO 33010KT 1 1/2SM -SN BR OVC021 00/M01 A3039 RMK AO2 CIG 021V026 PRESRR SLP317
Temperature: 0.0°C ( 32°F)
Dewpoint: -1.0°C ( 30°F) [RH = 93%]
Pressure (altimeter):30.39 inches Hg (1029.2 mb) [Sea level pressure: 1031.7 mb]
Winds:from the NNW (330 degrees) at 12 MPH (10 knots; 5.1 m/s)
Visibility: 1.50 sm ( 2.41 km)
Ceiling:2100 feet AGL
Clouds: overcast cloud deck at 2100 feet AGL
Weather:-SN BR (light snow, mist)
QC Flag:automated observation with no human augmentation
Text:KAFF 250138Z AUTO 32011KT 1 7/8SM -SN BR OVC026 00/M01 A3037 RMK AO2 SLP304
Temperature: 0.0°C ( 32°F)
Dewpoint: -1.0°C ( 30°F) [RH = 93%]
Pressure (altimeter):30.37 inches Hg (1028.5 mb) [Sea level pressure: 1030.4 mb]
Winds:from the NW (320 degrees) at 13 MPH (11 knots; 5.7 m/s)
Visibility: 1.88 sm ( 3.03 km)
Ceiling:2600 feet AGL
Clouds: overcast cloud deck at 2600 feet AGL
Weather:-SN BR (light snow, mist)
QC Flag:automated observation with no human augmentation
Text:KAFF 250128Z AUTO 33008KT 2 1/4SM -SN BR OVC025 00/M01 A3037 RMK AO2 VIS 2 1/4V6 SLP310
Temperature: 0.0°C ( 32°F)
Dewpoint: -1.0°C ( 30°F) [RH = 93%]
Pressure (altimeter):30.37 inches Hg (1028.5 mb) [Sea level pressure: 1031.0 mb]
Winds:from the NNW (330 degrees) at 9 MPH (8 knots; 4.1 m/s)
Visibility: 2.25 sm ( 3.62 km)
Ceiling:2500 feet AGL
Clouds: overcast cloud deck at 2500 feet AGL
Weather:-SN BR (light snow, mist)
QC Flag:automated observation with no human augmentation
Text:KAFF 250118Z AUTO 33009KT 6SM -SN BR OVC025 00/M01 A3038 RMK AO2 CIG 025V031 SLP313
Temperature: 0.0°C ( 32°F)
Dewpoint: -1.0°C ( 30°F) [RH = 93%]
Pressure (altimeter):30.38 inches Hg (1028.9 mb) [Sea level pressure: 1031.3 mb]
Winds:from the NNW (330 degrees) at 10 MPH (9 knots; 4.6 m/s)
Visibility: 6 sm ( 10 km)
Ceiling:2500 feet AGL
Clouds: overcast cloud deck at 2500 feet AGL
Weather:-SN BR (light snow, mist)
QC Flag:automated observation with no human augmentation
Text:KAFF 250108Z AUTO 35007KT 4SM -SN BR OVC033 00/M02 A3037 RMK AO2 SLP310
Temperature: 0.0°C ( 32°F)
Dewpoint: -2.0°C ( 28°F) [RH = 86%]
Pressure (altimeter):30.37 inches Hg (1028.5 mb) [Sea level pressure: 1031.0 mb]
Winds:from the N (350 degrees) at 8 MPH (7 knots; 3.6 m/s)
Visibility: 4 sm ( 6 km)
Ceiling:3300 feet AGL
Clouds: overcast cloud deck at 3300 feet AGL
Weather:-SN BR (light snow, mist)
QC Flag:automated observation with no human augmentation
Text:KAFF 250058Z 34010KT 4SM -SN BKN033 OVC048 01/M02 A3037 RMK AO2A SNE12B41 SLP304 P0000 T00081018
Temperature: 0.8°C ( 33°F)
Dewpoint: -1.8°C ( 29°F) [RH = 83%]
Pressure (altimeter):30.37 inches Hg (1028.5 mb) [Sea level pressure: 1030.4 mb]
Winds:from the NNW (340 degrees) at 12 MPH (10 knots; 5.1 m/s)
Visibility: 4 sm ( 6 km)
Ceiling:3300 feet AGL
Clouds: broken clouds at 3300 feet AGL, overcast cloud deck at 4800 feet AGL
Weather:-SN (light snow)
Text:KAFF 250041Z 35009KT 10SM -SN SCT037 BKN050 OVC060 01/M02 A3036 RMK A02A SLP300
Temperature: 1.0°C ( 34°F)
Dewpoint: -2.0°C ( 28°F) [RH = 80%]
Pressure (altimeter):30.36 inches Hg (1028.2 mb) [Sea level pressure: 1030.0 mb]
Winds:from the N (350 degrees) at 10 MPH (9 knots; 4.6 m/s)
Visibility:10 or more sm (16+ km)
Ceiling:5000 feet AGL
Clouds: scattered clouds at 3700 feet AGL, broken clouds at 5000 feet AGL, overcast cloud deck at 6000 feet AGL
Weather:-SN (light snow)
Text:KAFF 242358Z 34010KT 10SM -SN OVC014 01/M01 A3036 RMK AO2A SLP300 P0000 60005 T00121015 10019 21001 55002
Temperature: 1.2°C ( 34°F)
Dewpoint: -1.5°C ( 29°F) [RH = 82%]
Pressure (altimeter):30.36 inches Hg (1028.2 mb) [Sea level pressure: 1030.0 mb]
Winds:from the NNW (340 degrees) at 12 MPH (10 knots; 5.1 m/s)
Visibility:10 or more sm (16+ km)
Ceiling:1400 feet AGL
Clouds: overcast cloud deck at 1400 feet AGL
Weather:-SN (light snow)
Text:KAFF 242258Z 34011G17KT 4SM -SN FEW026 BKN031 01/M01 A3035 RMK AO2A SLP296 P0000 T00131011
Temperature: 1.3°C ( 34°F)
Dewpoint: -1.1°C ( 30°F) [RH = 84%]
Pressure (altimeter):30.35 inches Hg (1027.9 mb) [Sea level pressure: 1029.6 mb]
Winds:from the NNW (340 degrees) at 13 MPH (11 knots; 5.7 m/s) gusting to 20 MPH (17 knots; 8.7 m/s)
Visibility: 4 sm ( 6 km)
Ceiling:3100 feet AGL
Clouds: few clouds at 2600 feet AGL, broken clouds at 3100 feet AGL
Weather:-SN (light snow)
Text:KAFF 242158Z 33014KT 10SM -SN FEW012 FEW021 OVC030 01/M01 A3034 RMK AO2A SNE46B50 SLP293 P0001 T00101012
Temperature: 1.0°C ( 34°F)
Dewpoint: -1.2°C ( 30°F) [RH = 85%]
Pressure (altimeter):30.34 inches Hg (1027.5 mb) [Sea level pressure: 1029.3 mb]
Winds:from the NNW (330 degrees) at 16 MPH (14 knots; 7.2 m/s)
Visibility:10 or more sm (16+ km)
Ceiling:3000 feet AGL
Clouds: few clouds at 1200 feet AGL, few clouds at 2100 feet AGL, overcast cloud deck at 3000 feet AGL
Weather:-SN (light snow)
Text:KAFF 242146Z 33012G16KT 10SM FEW014 BKN021 OVC028 01/00 A3035 RMK AO2A SLP290
Temperature: 1.0°C ( 34°F)
Dewpoint: 0.0°C ( 32°F) [RH = 93%]
Pressure (altimeter):30.35 inches Hg (1027.9 mb) [Sea level pressure: 1029.0 mb]
Winds:from the NNW (330 degrees) at 14 MPH (12 knots; 6.2 m/s) gusting to 18 MPH (16 knots; 8.2 m/s)
Visibility:10 or more sm (16+ km)
Ceiling:2100 feet AGL
Clouds: few clouds at 1400 feet AGL, broken clouds at 2100 feet AGL, overcast cloud deck at 2800 feet AGL
Text:KAFF 242058Z 35012G21KT 1/2SM SN SCT002 BKN017 OVC022 00/M02 A3037 RMK AO2A SLP304 P0000 60000 T00041022
Temperature: 0.4°C ( 33°F)
Dewpoint: -2.2°C ( 28°F) [RH = 83%]
Pressure (altimeter):30.37 inches Hg (1028.5 mb) [Sea level pressure: 1030.4 mb]
Winds:from the N (350 degrees) at 14 MPH (12 knots; 6.2 m/s) gusting to 24 MPH (21 knots; 10.8 m/s)
Visibility: 0.50 sm ( 0.80 km)
Ceiling:1700 feet AGL
Clouds: scattered clouds at 200 feet AGL, broken clouds at 1700 feet AGL, overcast cloud deck at 2200 feet AGL
Weather:SN (moderate snow)
Text:KAFF 242048Z 34015G21KT 2SM -SN BKN017 OVC025 01/M02 A3036 RMK AO2A SLP294
Temperature: 1.0°C ( 34°F)
Dewpoint: -2.0°C ( 28°F) [RH = 80%]
Pressure (altimeter):30.36 inches Hg (1028.2 mb) [Sea level pressure: 1029.4 mb]
Winds:from the NNW (340 degrees) at 17 MPH (15 knots; 7.7 m/s) gusting to 24 MPH (21 knots; 10.8 m/s)
Visibility: 2.00 sm ( 3.22 km)
Ceiling:1700 feet AGL
Clouds: broken clouds at 1700 feet AGL, overcast cloud deck at 2500 feet AGL
Weather:-SN (light snow)
Text:KAFF 242003Z AUTO 01018KT 7SM -UP FEW003 BKN016 OVC025 01/M02 A3036 RMK AO2 SNE1959UPB1959 SLP294
Temperature: 1.0°C ( 34°F)
Dewpoint: -2.0°C ( 28°F) [RH = 80%]
Pressure (altimeter):30.36 inches Hg (1028.2 mb) [Sea level pressure: 1029.4 mb]
Winds:from the N (10 degrees) at 21 MPH (18 knots; 9.3 m/s)
Visibility: 7 sm ( 11 km)
Ceiling:1600 feet AGL
Clouds: few clouds at 300 feet AGL, broken clouds at 1600 feet AGL, overcast cloud deck at 2500 feet AGL
Weather:UP (unknown precipitation)
QC Flag:automated observation with no human augmentation
Text:KAFF 241958Z 35015G21KT 4SM -SN SCT003 BKN016 OVC025 01/M02 A3037 RMK AO2A SLP297 P0000 T00071017
Temperature: 0.7°C ( 33°F)
Dewpoint: -1.7°C ( 29°F) [RH = 84%]
Pressure (altimeter):30.37 inches Hg (1028.5 mb) [Sea level pressure: 1029.7 mb]
Winds:from the N (350 degrees) at 17 MPH (15 knots; 7.7 m/s) gusting to 24 MPH (21 knots; 10.8 m/s)
Visibility: 4 sm ( 6 km)
Ceiling:1600 feet AGL
Clouds: scattered clouds at 300 feet AGL, broken clouds at 1600 feet AGL, overcast cloud deck at 2500 feet AGL
Weather:-SN (light snow)
Text:KAFF 241917Z 35014KT 2 1/4SM -SN FEW004 BKN013 OVC020 00/M03 A3037 RMK AO2A SLP297
Temperature: 0.0°C ( 32°F)
Dewpoint: -3.0°C ( 27°F) [RH = 80%]
Pressure (altimeter):30.37 inches Hg (1028.5 mb) [Sea level pressure: 1029.7 mb]
Winds:from the N (350 degrees) at 16 MPH (14 knots; 7.2 m/s)
Visibility: 2.25 sm ( 3.62 km)
Ceiling:1300 feet AGL
Clouds: few clouds at 400 feet AGL, broken clouds at 1300 feet AGL, overcast cloud deck at 2000 feet AGL
Weather:-SN (light snow)
Text:KAFF 241858Z 35015G20KT 10SM -SN OVC014 01/M03 A3037 RMK AO2A DZB12E58SNB58 SLP291 P0000 T00081033
Temperature: 0.8°C ( 33°F)
Dewpoint: -3.3°C ( 26°F) [RH = 74%]
Pressure (altimeter):30.37 inches Hg (1028.5 mb) [Sea level pressure: 1029.1 mb]
Winds:from the N (350 degrees) at 17 MPH (15 knots; 7.7 m/s) gusting to 23 MPH (20 knots; 10.3 m/s)
Visibility:10 or more sm (16+ km)
Ceiling:1400 feet AGL
Clouds: overcast cloud deck at 1400 feet AGL
Weather:-SN (light snow)
Text:KAFF 241827Z 01015KT 10SM -DZ OVC013 01/M03 A3037 RMK AO2A SLP285
Temperature: 1.0°C ( 34°F)
Dewpoint: -3.0°C ( 27°F) [RH = 75%]
Pressure (altimeter):30.37 inches Hg (1028.5 mb) [Sea level pressure: 1028.5 mb]
Winds:from the N (10 degrees) at 17 MPH (15 knots; 7.7 m/s)
Visibility:10 or more sm (16+ km)
Ceiling:1300 feet AGL
Clouds: overcast cloud deck at 1300 feet AGL
Weather:-DZ (light drizzle)
Text:KAFF 241812Z 34013G20KT 10SM -DZ OVC015 01/M04 A3038 RMK AO2A SLP288
Temperature: 1.0°C ( 34°F)
Dewpoint: -4.0°C ( 25°F) [RH = 69%]
Pressure (altimeter):30.38 inches Hg (1028.9 mb) [Sea level pressure: 1028.8 mb]
Winds:from the NNW (340 degrees) at 15 MPH (13 knots; 6.7 m/s) gusting to 23 MPH (20 knots; 10.3 m/s)
Visibility:10 or more sm (16+ km)
Ceiling:1500 feet AGL
Clouds: overcast cloud deck at 1500 feet AGL
Weather:-DZ (light drizzle)
Text:KAFF 241658Z 35018G25KT 10SM SCT007 BKN014 OVC020 01/M04 A3038 RMK AO2A PK WND 33028/07 SLP282 T00091040
Temperature: 0.9°C ( 34°F)
Dewpoint: -4.0°C ( 25°F) [RH = 70%]
Pressure (altimeter):30.38 inches Hg (1028.9 mb) [Sea level pressure: 1028.2 mb]
Winds:from the N (350 degrees) at 21 MPH (18 knots; 9.3 m/s) gusting to 29 MPH (25 knots; 12.9 m/s)
Visibility:10 or more sm (16+ km)
Ceiling:1400 feet AGL
Clouds: scattered clouds at 700 feet AGL, broken clouds at 1400 feet AGL, overcast cloud deck at 2000 feet AGL
Text:KAFF 241541Z AUTO 36021G25KT 10SM OVC011 00/M03 A3037 RMK AO2 DZB27E28RAB28E38DZB38E41 SLP278
Temperature: 0.0°C ( 32°F)
Dewpoint: -3.0°C ( 27°F) [RH = 80%]
Pressure (altimeter):30.37 inches Hg (1028.5 mb) [Sea level pressure: 1027.8 mb]
Winds:from the N (360 degrees) at 24 MPH (21 knots; 10.8 m/s) gusting to 29 MPH (25 knots; 12.9 m/s)
Visibility:10 or more sm (16+ km)
Ceiling:1100 feet AGL
Clouds: overcast cloud deck at 1100 feet AGL
QC Flag:automated observation with no human augmentation
Text:KAFF 241458Z 33019G24KT 10SM SCT007 BKN014 OVC028 01/M03 A3037 RMK AO2A PK WND 34029/17 SNE43 SLP266 P0000 60000 T00081033 50015
Temperature: 0.8°C ( 33°F)
Dewpoint: -3.3°C ( 26°F) [RH = 74%]
Pressure (altimeter):30.37 inches Hg (1028.5 mb) [Sea level pressure: 1026.6 mb]
Winds:from the NNW (330 degrees) at 22 MPH (19 knots; 9.8 m/s) gusting to 28 MPH (24 knots; 12.3 m/s)
Visibility:10 or more sm (16+ km)
Ceiling:1400 feet AGL
Clouds: scattered clouds at 700 feet AGL, broken clouds at 1400 feet AGL, overcast cloud deck at 2800 feet AGL
Text:KAFF 241443Z 34018G26KT 10SM SCT007 BKN014 OVC028 01/M04 A3037 RMK AO2A SNE43 SLP266
Temperature: 1.0°C ( 34°F)
Dewpoint: -4.0°C ( 25°F) [RH = 69%]
Pressure (altimeter):30.37 inches Hg (1028.5 mb) [Sea level pressure: 1026.6 mb]
Winds:from the NNW (340 degrees) at 21 MPH (18 knots; 9.3 m/s) gusting to 30 MPH (26 knots; 13.4 m/s)
Visibility:10 or more sm (16+ km)
Ceiling:1400 feet AGL
Clouds: scattered clouds at 700 feet AGL, broken clouds at 1400 feet AGL, overcast cloud deck at 2800 feet AGL
Text:KAFF 241344Z 35018G24KT 10SM -SN FEW007 BKN012 BKN020 01/M03 A3036 RMK AO2A SNE19B44 SLP263
Temperature: 1.0°C ( 34°F)
Dewpoint: -3.0°C ( 27°F) [RH = 75%]
Pressure (altimeter):30.36 inches Hg (1028.2 mb) [Sea level pressure: 1026.3 mb]
Winds:from the N (350 degrees) at 21 MPH (18 knots; 9.3 m/s) gusting to 28 MPH (24 knots; 12.3 m/s)
Visibility:10 or more sm (16+ km)
Ceiling:1200 feet AGL
Clouds: few clouds at 700 feet AGL, broken clouds at 1200 feet AGL, broken clouds at 2000 feet AGL
Weather:-SN (light snow)
Text:KAFF 241319Z 36018KT 10SM FEW007 BKN012 BKN020 01/M02 A3036 RMK AO2A SNE19 SLP256
Temperature: 1.0°C ( 34°F)
Dewpoint: -2.0°C ( 28°F) [RH = 80%]
Pressure (altimeter):30.36 inches Hg (1028.2 mb) [Sea level pressure: 1025.6 mb]
Winds:from the N (360 degrees) at 21 MPH (18 knots; 9.3 m/s)
Visibility:10 or more sm (16+ km)
Ceiling:1200 feet AGL
Clouds: few clouds at 700 feet AGL, broken clouds at 1200 feet AGL, broken clouds at 2000 feet AGL
Text:KAFF 241258Z 01016KT 5SM -SN FEW007 BKN012 OVC020 01/M02 A3035 RMK AO2A SNB47 SLP253 P0000 T00061016
Temperature: 0.6°C ( 33°F)
Dewpoint: -1.6°C ( 29°F) [RH = 85%]
Pressure (altimeter):30.35 inches Hg (1027.9 mb) [Sea level pressure: 1025.3 mb]
Winds:from the N (10 degrees) at 18 MPH (16 knots; 8.2 m/s)
Visibility: 5 sm ( 8 km)
Ceiling:1200 feet AGL
Clouds: few clouds at 700 feet AGL, broken clouds at 1200 feet AGL, overcast cloud deck at 2000 feet AGL
Weather:-SN (light snow)
Text:KAFF 241247Z 02015KT 7SM -SN SCT007 BKN012 OVC016 01/M01 A3033 RMK AO2A SNB47 SLP246
Temperature: 1.0°C ( 34°F)
Dewpoint: -1.0°C ( 30°F) [RH = 86%]
Pressure (altimeter):30.33 inches Hg (1027.2 mb) [Sea level pressure: 1024.6 mb]
Winds:from the NNE (20 degrees) at 17 MPH (15 knots; 7.7 m/s)
Visibility: 7 sm ( 11 km)
Ceiling:1200 feet AGL
Clouds: scattered clouds at 700 feet AGL, broken clouds at 1200 feet AGL, overcast cloud deck at 1600 feet AGL
Weather:-SN (light snow)
Text:KAFF 241212Z 01013KT 10SM SCT007 BKN011 OVC020 01/M01 A3033 RMK AO2A SLP239
Temperature: 1.0°C ( 34°F)
Dewpoint: -1.0°C ( 30°F) [RH = 86%]
Pressure (altimeter):30.33 inches Hg (1027.2 mb) [Sea level pressure: 1023.9 mb]
Winds:from the N (10 degrees) at 15 MPH (13 knots; 6.7 m/s)
Visibility:10 or more sm (16+ km)
Ceiling:1100 feet AGL
Clouds: scattered clouds at 700 feet AGL, broken clouds at 1100 feet AGL, overcast cloud deck at 2000 feet AGL
Text:KAFF 241156Z 36015KT 10SM FEW007 SCT011 OVC020 01/M02 A3031 RMK AO2A PK WND 01027/00 SLP232 60000 T00091017 10071 20009 52019
Temperature: 0.9°C ( 34°F)
Dewpoint: -1.7°C ( 29°F) [RH = 83%]
Pressure (altimeter):30.31 inches Hg (1026.5 mb) [Sea level pressure: 1023.2 mb]
Winds:from the N (360 degrees) at 17 MPH (15 knots; 7.7 m/s)
Visibility:10 or more sm (16+ km)
Ceiling:2000 feet AGL
Clouds: few clouds at 700 feet AGL, scattered clouds at 1100 feet AGL, overcast cloud deck at 2000 feet AGL
Text:KAFF 241143Z COR 36016KT 10SM FEW007 SCT011 OVC020 01/M01 A3031 RMK AO2A SLP232 COR 1144
Temperature: 1.0°C ( 34°F)
Dewpoint: -1.0°C ( 30°F) [RH = 86%]
Pressure (altimeter):30.31 inches Hg (1026.5 mb) [Sea level pressure: 1023.2 mb]
Winds:from the N (360 degrees) at 18 MPH (16 knots; 8.2 m/s)
Visibility:10 or more sm (16+ km)
Ceiling:2000 feet AGL
Clouds: few clouds at 700 feet AGL, scattered clouds at 1100 feet AGL, overcast cloud deck at 2000 feet AGL
Text:KAFF 241058Z 36018G23KT 10SM FEW009 OVC018 02/00 A3028 RMK AO2A PK WND 01026/47 SLP216 T00181005
Temperature: 1.8°C ( 35°F)
Dewpoint: -0.5°C ( 31°F) [RH = 85%]
Pressure (altimeter):30.28 inches Hg (1025.5 mb) [Sea level pressure: 1021.6 mb]
Winds:from the N (360 degrees) at 21 MPH (18 knots; 9.3 m/s) gusting to 26 MPH (23 knots; 11.8 m/s)
Visibility:10 or more sm (16+ km)
Ceiling:1800 feet AGL
Clouds: few clouds at 900 feet AGL, overcast cloud deck at 1800 feet AGL
Text:KAFF 241038Z 36017KT 10SM SCT008 OVC018 02/00 A3028 RMK AO2A SLP216
Temperature: 2.0°C ( 36°F)
Dewpoint: 0.0°C ( 32°F) [RH = 87%]
Pressure (altimeter):30.28 inches Hg (1025.5 mb) [Sea level pressure: 1021.6 mb]
Winds:from the N (360 degrees) at 20 MPH (17 knots; 8.7 m/s)
Visibility:10 or more sm (16+ km)
Ceiling:1800 feet AGL
Clouds: scattered clouds at 800 feet AGL, overcast cloud deck at 1800 feet AGL
Text:KAFF 241008Z 35014KT 10SM FEW007 SCT013 OVC022 02/00 A3027 RMK AO2A SLP218
Temperature: 2.0°C ( 36°F)
Dewpoint: 0.0°C ( 32°F) [RH = 87%]
Pressure (altimeter):30.27 inches Hg (1025.1 mb) [Sea level pressure: 1021.8 mb]
Winds:from the N (350 degrees) at 16 MPH (14 knots; 7.2 m/s)
Visibility:10 or more sm (16+ km)
Ceiling:2200 feet AGL
Clouds: few clouds at 700 feet AGL, scattered clouds at 1300 feet AGL, overcast cloud deck at 2200 feet AGL
Text:KAFF 240958Z 34013KT 10SM FEW006 BKN013 OVC022 02/00 A3028 RMK AO2A PK WND 32031/09 UPE0859DZB0859E07 SLP222 P0000 T00191002
Temperature: 1.9°C ( 35°F)
Dewpoint: -0.2°C ( 32°F) [RH = 86%]
Pressure (altimeter):30.28 inches Hg (1025.5 mb) [Sea level pressure: 1022.2 mb]
Winds:from the NNW (340 degrees) at 15 MPH (13 knots; 6.7 m/s)
Visibility:10 or more sm (16+ km)
Ceiling:1300 feet AGL
Clouds: few clouds at 600 feet AGL, broken clouds at 1300 feet AGL, overcast cloud deck at 2200 feet AGL
Text:KAFF 240917Z COR AUTO 33019G26KT 10SM SCT006 OVC017 03/00 A3026 RMK AO2A UPE0859DZB0859E07 SLP208 COR 0953
Temperature: 3.0°C ( 37°F)
Dewpoint: 0.0°C ( 32°F) [RH = 81%]
Pressure (altimeter):30.26 inches Hg (1024.8 mb) [Sea level pressure: 1020.8 mb]
Winds:from the NNW (330 degrees) at 22 MPH (19 knots; 9.8 m/s) gusting to 30 MPH (26 knots; 13.4 m/s)
Visibility:10 or more sm (16+ km)
Ceiling:1700 feet AGL
Clouds: scattered clouds at 600 feet AGL, overcast cloud deck at 1700 feet AGL
QC Flag:automated observation with no human augmentation
Text:KAFF 240907Z AUTO 33018G27KT 10SM BKN006 BKN010 OVC017 03/01 A3025 RMK AO2 UPE0858DZB0858E07 SLP205
Temperature: 3.0°C ( 37°F)
Dewpoint: 1.0°C ( 34°F) [RH = 87%]
Pressure (altimeter):30.25 inches Hg (1024.5 mb) [Sea level pressure: 1020.5 mb]
Winds:from the NNW (330 degrees) at 21 MPH (18 knots; 9.3 m/s) gusting to 31 MPH (27 knots; 13.9 m/s)
Visibility:10 or more sm (16+ km)
Ceiling:600 feet AGL
Clouds: broken clouds at 600 feet AGL, broken clouds at 1000 feet AGL, overcast cloud deck at 1700 feet AGL
QC Flag:automated observation with no human augmentation
Text:KAFF 240858Z AUTO 34024G32KT 10SM -UP BKN007 OVC011 03/01 A3025 RMK AO2 PK WND 34032/55 UPB44 SLP205 P0000 60000 T00270011 50009
Temperature: 2.7°C ( 37°F)
Dewpoint: 1.1°C ( 34°F) [RH = 89%]
Pressure (altimeter):30.25 inches Hg (1024.5 mb) [Sea level pressure: 1020.5 mb]
Winds:from the NNW (340 degrees) at 28 MPH (24 knots; 12.3 m/s) gusting to 37 MPH (32 knots; 16.5 m/s)
Visibility:10 or more sm (16+ km)
Ceiling:700 feet AGL
Clouds: broken clouds at 700 feet AGL, overcast cloud deck at 1100 feet AGL
Weather:UP (unknown precipitation)
QC Flag:automated observation with no human augmentation
Text:KAFF 240844Z AUTO 34022G28KT 10SM -UP BKN009 OVC014 03/01 A3024 RMK AO2 UPB44 SLP196
Temperature: 3.0°C ( 37°F)
Dewpoint: 1.0°C ( 34°F) [RH = 87%]
Pressure (altimeter):30.24 inches Hg (1024.1 mb) [Sea level pressure: 1019.6 mb]
Winds:from the NNW (340 degrees) at 25 MPH (22 knots; 11.3 m/s) gusting to 32 MPH (28 knots; 14.4 m/s)
Visibility:10 or more sm (16+ km)
Ceiling:900 feet AGL
Clouds: broken clouds at 900 feet AGL, overcast cloud deck at 1400 feet AGL
Weather:UP (unknown precipitation)
QC Flag:automated observation with no human augmentation
Text:KAFF 240838Z AUTO 34022G28KT 10SM BKN010 OVC015 03/01 A3025 RMK AO2 SLP205
Temperature: 3.0°C ( 37°F)
Dewpoint: 1.0°C ( 34°F) [RH = 87%]
Pressure (altimeter):30.25 inches Hg (1024.5 mb) [Sea level pressure: 1020.5 mb]
Winds:from the NNW (340 degrees) at 25 MPH (22 knots; 11.3 m/s) gusting to 32 MPH (28 knots; 14.4 m/s)
Visibility:10 or more sm (16+ km)
Ceiling:1000 feet AGL
Clouds: broken clouds at 1000 feet AGL, overcast cloud deck at 1500 feet AGL
QC Flag:automated observation with no human augmentation
Text:KAFF 240758Z AUTO 34018G28KT 10SM OVC007 04/02 A3025 RMK AO2 PK WND 32030/56 SLP200 T00370016
Temperature: 3.7°C ( 39°F)
Dewpoint: 1.6°C ( 35°F) [RH = 86%]
Pressure (altimeter):30.25 inches Hg (1024.5 mb) [Sea level pressure: 1020.0 mb]
Winds:from the NNW (340 degrees) at 21 MPH (18 knots; 9.3 m/s) gusting to 32 MPH (28 knots; 14.4 m/s)
Visibility:10 or more sm (16+ km)
Ceiling:700 feet AGL
Clouds: overcast cloud deck at 700 feet AGL
QC Flag:automated observation with no human augmentation
Text:KAFF 240748Z AUTO 34020G28KT 10SM BKN008 OVC012 04/02 A3025 RMK AO2 SLP200
Temperature: 4.0°C ( 39°F)
Dewpoint: 2.0°C ( 36°F) [RH = 87%]
Pressure (altimeter):30.25 inches Hg (1024.5 mb) [Sea level pressure: 1020.0 mb]
Winds:from the NNW (340 degrees) at 23 MPH (20 knots; 10.3 m/s) gusting to 32 MPH (28 knots; 14.4 m/s)
Visibility:10 or more sm (16+ km)
Ceiling:800 feet AGL
Clouds: broken clouds at 800 feet AGL, overcast cloud deck at 1200 feet AGL
QC Flag:automated observation with no human augmentation
Text:KAFF 240658Z AUTO 35017G26KT 10SM BKN012 OVC018 06/03 A3024 RMK AO2 PK WND 35030/54 SLP191 T00550025 401841003
Temperature: 5.5°C ( 42°F)
Dewpoint: 2.5°C ( 36°F) [RH = 81%]
Pressure (altimeter):30.24 inches Hg (1024.1 mb) [Sea level pressure: 1019.1 mb]
Winds:from the N (350 degrees) at 20 MPH (17 knots; 8.7 m/s) gusting to 30 MPH (26 knots; 13.4 m/s)
Visibility:10 or more sm (16+ km)
Ceiling:1200 feet AGL
Clouds: broken clouds at 1200 feet AGL, overcast cloud deck at 1800 feet AGL
QC Flag:automated observation with no human augmentation
Text:KAFF 240638Z AUTO 36017G23KT 10SM BKN015 OVC020 06/03 A3023 RMK AO2 SLP188
Temperature: 6.0°C ( 43°F)
Dewpoint: 3.0°C ( 37°F) [RH = 81%]
Pressure (altimeter):30.23 inches Hg (1023.8 mb) [Sea level pressure: 1018.8 mb]
Winds:from the N (360 degrees) at 20 MPH (17 knots; 8.7 m/s) gusting to 26 MPH (23 knots; 11.8 m/s)
Visibility:10 or more sm (16+ km)
Ceiling:1500 feet AGL
Clouds: broken clouds at 1500 feet AGL, overcast cloud deck at 2000 feet AGL
QC Flag:automated observation with no human augmentation
Text:KAFF 240628Z AUTO 35019G24KT 10SM BKN015 OVC020 06/04 A3022 RMK AO2 SLP184
Temperature: 6.0°C ( 43°F)
Dewpoint: 4.0°C ( 39°F) [RH = 87%]
Pressure (altimeter):30.22 inches Hg (1023.5 mb) [Sea level pressure: 1018.4 mb]
Winds:from the N (350 degrees) at 22 MPH (19 knots; 9.8 m/s) gusting to 28 MPH (24 knots; 12.3 m/s)
Visibility:10 or more sm (16+ km)
Ceiling:1500 feet AGL
Clouds: broken clouds at 1500 feet AGL, overcast cloud deck at 2000 feet AGL
QC Flag:automated observation with no human augmentation
Text:KAFF 240558Z AUTO 35020G26KT 10SM OVC014 07/04 A3021 RMK AO2 PK WND 33034/04 RAE20 SLP181 P0000 60000 T00720043 10177 20072 52028
Temperature: 7.2°C ( 45°F)
Dewpoint: 4.3°C ( 40°F) [RH = 82%]
Pressure (altimeter):30.21 inches Hg (1023.1 mb) [Sea level pressure: 1018.1 mb]
Winds:from the N (350 degrees) at 23 MPH (20 knots; 10.3 m/s) gusting to 30 MPH (26 knots; 13.4 m/s)
Visibility:10 or more sm (16+ km)
Ceiling:1400 feet AGL
Clouds: overcast cloud deck at 1400 feet AGL
QC Flag:automated observation with no human augmentation
Text:KAFF 240550Z AUTO 35021G27KT 10SM OVC014 08/05 A3021 RMK AO2 RAE20 SLP181
Temperature: 8.0°C ( 46°F)
Dewpoint: 5.0°C ( 41°F) [RH = 81%]
Pressure (altimeter):30.21 inches Hg (1023.1 mb) [Sea level pressure: 1018.1 mb]
Winds:from the N (350 degrees) at 24 MPH (21 knots; 10.8 m/s) gusting to 31 MPH (27 knots; 13.9 m/s)
Visibility:10 or more sm (16+ km)
Ceiling:1400 feet AGL
Clouds: overcast cloud deck at 1400 feet AGL
QC Flag:automated observation with no human augmentation
Text:KAFF 240530Z AUTO 35018G24KT 10SM BKN017 08/05 A3020 RMK AO2 RAE20 SLP177
Temperature: 8.0°C ( 46°F)
Dewpoint: 5.0°C ( 41°F) [RH = 81%]
Pressure (altimeter):30.20 inches Hg (1022.8 mb) [Sea level pressure: 1017.7 mb]
Winds:from the N (350 degrees) at 21 MPH (18 knots; 9.3 m/s) gusting to 28 MPH (24 knots; 12.3 m/s)
Visibility:10 or more sm (16+ km)
Ceiling:1700 feet AGL
Clouds: broken clouds at 1700 feet AGL
QC Flag:automated observation with no human augmentation
Text:KAFF 240520Z AUTO 35019G27KT 10SM SCT018 BKN034 BKN055 09/05 A3019 RMK AO2 RAE20 SLP173
Temperature: 9.0°C ( 48°F)
Dewpoint: 5.0°C ( 41°F) [RH = 76%]
Pressure (altimeter):30.19 inches Hg (1022.4 mb) [Sea level pressure: 1017.3 mb]
Winds:from the N (350 degrees) at 22 MPH (19 knots; 9.8 m/s) gusting to 31 MPH (27 knots; 13.9 m/s)
Visibility:10 or more sm (16+ km)
Ceiling:3400 feet AGL
Clouds: scattered clouds at 1800 feet AGL, broken clouds at 3400 feet AGL, broken clouds at 5500 feet AGL
QC Flag:automated observation with no human augmentation
Text:KAFF 240518Z AUTO 34020G27KT 10SM -RA SCT018 SCT035 BKN060 09/05 A3019 RMK AO2 SLP173
Temperature: 9.0°C ( 48°F)
Dewpoint: 5.0°C ( 41°F) [RH = 76%]
Pressure (altimeter):30.19 inches Hg (1022.4 mb) [Sea level pressure: 1017.3 mb]
Winds:from the NNW (340 degrees) at 23 MPH (20 knots; 10.3 m/s) gusting to 31 MPH (27 knots; 13.9 m/s)
Visibility:10 or more sm (16+ km)
Ceiling:6000 feet AGL
Clouds: scattered clouds at 1800 feet AGL, scattered clouds at 3500 feet AGL, broken clouds at 6000 feet AGL
Weather:-RA (light rain)
QC Flag:automated observation with no human augmentation
Text:KAFF 240508Z AUTO 34021G32KT 10SM -RA SCT019 BKN035 BKN046 BKN060 OVC080 09/05 A3019 RMK AO2 SLP173
Temperature: 9.0°C ( 48°F)
Dewpoint: 5.0°C ( 41°F) [RH = 76%]
Pressure (altimeter):30.19 inches Hg (1022.4 mb) [Sea level pressure: 1017.3 mb]
Winds:from the NNW (340 degrees) at 24 MPH (21 knots; 10.8 m/s) gusting to 37 MPH (32 knots; 16.5 m/s)
Visibility:10 or more sm (16+ km)
Ceiling:3500 feet AGL
Clouds: scattered clouds at 1900 feet AGL, broken clouds at 3500 feet AGL, broken clouds at 4600 feet AGL, broken clouds at 6000 feet AGL
Weather:-RA (light rain)
QC Flag:automated observation with no human augmentation
Text:KAFF 240458Z AUTO 34020G27KT 10SM -RA FEW037 SCT046 SCT060 OVC085 10/05 A3019 RMK AO2 PK WND 30034/32 RAB56 SLP173 P0000 T00980048
Temperature: 9.8°C ( 50°F)
Dewpoint: 4.8°C ( 41°F) [RH = 71%]
Pressure (altimeter):30.19 inches Hg (1022.4 mb) [Sea level pressure: 1017.3 mb]
Winds:from the NNW (340 degrees) at 23 MPH (20 knots; 10.3 m/s) gusting to 31 MPH (27 knots; 13.9 m/s)
Visibility:10 or more sm (16+ km)
Ceiling:8500 feet AGL
Clouds: few clouds at 3700 feet AGL, scattered clouds at 4600 feet AGL, scattered clouds at 6000 feet AGL, overcast cloud deck at 8500 feet AGL
Weather:-RA (light rain)
QC Flag:automated observation with no human augmentation
Text:KAFF 240456Z AUTO 34021G27KT 10SM -RA FEW037 SCT046 SCT060 OVC085 10/05 A3019 RMK AO2 RAB56 SLP173
Temperature: 10.0°C ( 50°F)
Dewpoint: 5.0°C ( 41°F) [RH = 71%]
Pressure (altimeter):30.19 inches Hg (1022.4 mb) [Sea level pressure: 1017.3 mb]
Winds:from the NNW (340 degrees) at 24 MPH (21 knots; 10.8 m/s) gusting to 31 MPH (27 knots; 13.9 m/s)
Visibility:10 or more sm (16+ km)
Ceiling:8500 feet AGL
Clouds: few clouds at 3700 feet AGL, scattered clouds at 4600 feet AGL, scattered clouds at 6000 feet AGL, overcast cloud deck at 8500 feet AGL
Weather:-RA (light rain)
QC Flag:automated observation with no human augmentation
Text:KAFF 240358Z AUTO 00000KT 10SM SCT120 10/03 A3014 RMK AO2 SLP161 T01040027
Temperature: 10.4°C ( 51°F)
Dewpoint: 2.7°C ( 37°F) [RH = 59%]
Pressure (altimeter):30.14 inches Hg (1020.7 mb) [Sea level pressure: 1016.1 mb]
Winds:calm
Visibility:10 or more sm (16+ km)
Ceiling:at least 12,000 feet AGL
Clouds: scattered clouds at 12000 feet AGL
QC Flag:automated observation with no human augmentation
Text:KAFF 240258Z AUTO 00000KT 10SM CLR 13/03 A3011 RMK AO2 SLP150 T01270028 53016
Temperature: 12.7°C ( 55°F)
Dewpoint: 2.8°C ( 37°F) [RH = 51%]
Pressure (altimeter):30.11 inches Hg (1019.7 mb) [Sea level pressure: 1015.0 mb]
Winds:calm
Visibility:10 or more sm (16+ km)
Ceiling:at least 12,000 feet AGL
Clouds:sky clear below 12,000 feet AGL
QC Flag:automated observation with no human augmentation
Text:KAFF 240158Z AUTO 00000KT 10SM CLR 13/03 A3009 RMK AO2 SLP155 T01260030
Temperature: 12.6°C ( 55°F)
Dewpoint: 3.0°C ( 37°F) [RH = 52%]
Pressure (altimeter):30.09 inches Hg (1019.0 mb) [Sea level pressure: 1015.5 mb]
Winds:calm
Visibility:10 or more sm (16+ km)
Ceiling:at least 12,000 feet AGL
Clouds:sky clear below 12,000 feet AGL
QC Flag:automated observation with no human augmentation
Text:KAFF 240058Z AUTO 00000KT 10SM CLR 14/02 A3006 RMK AO2 SLP150 T01430016
Temperature: 14.3°C ( 58°F)
Dewpoint: 1.6°C ( 35°F) [RH = 42%]
Pressure (altimeter):30.06 inches Hg (1018.0 mb) [Sea level pressure: 1015.0 mb]
Winds:calm
Visibility:10 or more sm (16+ km)
Ceiling:at least 12,000 feet AGL
Clouds:sky clear below 12,000 feet AGL
QC Flag:automated observation with no human augmentation
Text:KAFF 232358Z 17010KT 10SM FEW100 17/01 A3006 RMK AO2A SLP144 60000 T01740005 10184 20160 57005
Temperature: 17.4°C ( 63°F)
Dewpoint: 0.5°C ( 33°F) [RH = 32%]
Pressure (altimeter):30.06 inches Hg (1018.0 mb) [Sea level pressure: 1014.4 mb]
Winds:from the S (170 degrees) at 12 MPH (10 knots; 5.1 m/s)
Visibility:10 or more sm (16+ km)
Ceiling:at least 12,000 feet AGL
Clouds: few clouds at 10000 feet AGL
Text:KAFF 232258Z 13006KT 10SM BKN100 17/02 A3007 RMK AO2A SLP148 T01720020
Temperature: 17.2°C ( 63°F)
Dewpoint: 2.0°C ( 36°F) [RH = 36%]
Pressure (altimeter):30.07 inches Hg (1018.4 mb) [Sea level pressure: 1014.8 mb]
Winds:from the SE (130 degrees) at 7 MPH (6 knots; 3.1 m/s)
Visibility:10 or more sm (16+ km)
Ceiling:10000 feet AGL
Clouds: broken clouds at 10000 feet AGL